Rosemary Beach, FL (32461)

10:09 AM CDT on August 29, 2015 (GMT -0500)
Nelda Sansouci | | Change Station
CLOSE
Current Station
Personal Weather Station
Location: Panama City Beach, FL
Elevation: 39 ft
Nearby Weather Stations

Elev 39 ft 30.24 °N, 85.91 °W | Updated 4 seconds ago

Rain
Rain
77.4 °F
Feels Like 79 °F
N
2.2
Wind Variable Wind from NE
Gusts 4.2 mph

Today
High -- | Low -- °F
--% Chance of Precip.
Yesterday
High -- | Low -- °F
Precip. -- in
6:18 AM 7:10 PM
Full, 100% visible
Pressure 30.15 in
Visibility 6.0 miles
Clouds Mostly Cloudy 900 ft
Mostly Cloudy 7000 ft
Overcast 8500 ft
Heat Index 79 °F
Dew Point 77 °F
Humidity 99%
Rainfall 0.01 in
Snow Depth Not available.
UV 2 out of 12
Pollen .40 out of 12
Air Quality Not available.
Flu Activity Not available.
METAR KECP 291453Z 07004KT 6SM BR BKN009 BKN070 OVC085 24/22 A3012 RMK AO2 RAB05E39 SLP210 P0002 60002 T02390222 51019
Pressure 30.15 in
Visibility 6.0 miles
Clouds Mostly Cloudy 900 ft
Mostly Cloudy 7000 ft
Overcast 8500 ft
Heat Index 79 °F
Dew Point 77 °F
Humidity 99%
Rainfall 0.01 in
Snow Depth Not available.
UV 2 out of 12
Pollen .40 out of 12
Air Quality Not available.
Flu Activity Not available.
METAR KECP 291453Z 07004KT 6SM BR BKN009 BKN070 OVC085 24/22 A3012 RMK AO2 RAB05E39 SLP210 P0002 60002 T02390222 51019

10-Day Weather Forecast

×

Almanac

Astronomy

Aug. 29, 2015 Rise Set
Actual Time
Civil Twilight
Nautical Twilight
Astronomical Twilight
Moon
Length of Visible Light
Length of Day
Tomorrow will be .
, % of the Moon is Illuminated

Today's Extremes

State Highs State Lows

Community

WunderPhotos

Upload Photos

1,850,684 photos uploaded!

WunderBlogs® & News

Nearby

Air Quality

  Air Quality AQ Index Pollutant
Not available.

Snow Depth

Station Depth Elevation

Earthquake Activity

City Distance Mag. Time & Date
Minimum magnitude displayed is 2.5.

Coastal Water Temperatures

Place Temperature

Stations

Nearby Weather Stations

Station Location Temp. Windchill Dew Point Humidity Wind Precip. Elev Updated Type